createdAt,value
2023-04-16T00:00:13.899Z,99.2179
2023-04-16T00:01:14.507Z,99.2422
2023-04-16T00:02:15.161Z,99.2610
2023-04-16T00:03:15.956Z,99.2733
2023-04-16T00:04:17.101Z,99.2748
2023-04-16T00:05:18.113Z,99.2841
2023-04-16T00:06:18.687Z,99.2824
2023-04-16T00:07:19.257Z,99.2720
2023-04-16T00:08:19.885Z,99.2719
2023-04-16T00:09:20.465Z,99.2761
2023-04-16T00:10:20.962Z,99.2869
2023-04-16T00:11:21.573Z,99.2912
2023-04-16T00:12:22.165Z,99.2863
2023-04-16T00:13:22.753Z,99.2764
2023-04-16T00:14:23.278Z,99.2631
2023-04-16T00:15:23.807Z,99.2620
2023-04-16T00:16:24.536Z,99.2627
2023-04-16T00:17:25.131Z,99.2768
2023-04-16T00:18:25.703Z,99.2901
2023-04-16T00:19:26.231Z,99.2904
2023-04-16T00:20:26.835Z,99.2838
2023-04-16T00:21:27.416Z,99.2758
2023-04-16T00:22:28.016Z,99.2568
2023-04-16T00:23:28.580Z,99.2328
2023-04-16T00:24:29.252Z,99.2446
2023-04-16T00:25:29.869Z,99.2530
2023-04-16T00:26:30.469Z,99.2402
2023-04-16T00:27:31.060Z,99.2197
2023-04-16T00:28:31.632Z,99.1983
2023-04-16T00:29:32.229Z,99.1951
2023-04-16T00:30:32.750Z,99.1824
2023-04-16T00:31:33.232Z,99.1722
2023-04-16T00:32:33.833Z,99.1829
2023-04-16T00:33:34.392Z,99.1929
2023-04-16T00:34:34.916Z,99.1801
2023-04-16T00:35:35.470Z,99.1862
2023-04-16T00:36:35.965Z,99.1890
2023-04-16T00:37:36.573Z,99.1894
2023-04-16T00:38:37.077Z,99.1727
2023-04-16T00:39:37.673Z,99.1671
2023-04-16T00:40:38.275Z,99.1718
2023-04-16T00:41:38.782Z,99.1810
2023-04-16T00:42:39.424Z,99.1836
2023-04-16T00:43:40.232Z,99.1582
2023-04-16T00:44:40.805Z,99.1682
2023-04-16T00:45:41.350Z,99.1809
2023-04-16T00:46:41.981Z,99.1980
2023-04-16T00:47:42.668Z,99.2140
2023-04-16T00:48:43.266Z,99.2224
2023-04-16T00:49:43.827Z,99.2128
2023-04-16T00:50:44.392Z,99.2137
2023-04-16T00:51:44.886Z,99.1895
2023-04-16T00:52:45.508Z,99.1822
2023-04-16T00:53:46.060Z,99.1946
2023-04-16T00:54:46.604Z,99.1861
2023-04-16T00:55:47.167Z,99.1793
2023-04-16T00:56:47.804Z,99.1735
2023-04-16T00:57:48.345Z,99.1698
2023-04-16T00:58:48.965Z,99.1811
2023-04-16T00:59:49.556Z,99.1702
2023-04-16T01:00:50.117Z,99.1818
2023-04-16T01:01:50.969Z,99.1952
2023-04-16T01:02:51.815Z,99.1895
2023-04-16T01:03:52.713Z,99.1695
2023-04-16T01:04:53.597Z,99.1253
2023-04-16T01:05:54.147Z,99.1229
2023-04-16T01:06:54.694Z,99.1400
2023-04-16T01:07:55.308Z,99.1580
2023-04-16T01:08:55.853Z,99.1395
2023-04-16T01:09:56.460Z,99.1366
2023-04-16T01:10:56.998Z,99.1535
2023-04-16T01:11:57.601Z,99.1436
2023-04-16T01:12:58.266Z,99.1383
2023-04-16T01:13:58.815Z,99.1189
2023-04-16T01:14:59.351Z,99.1187
2023-04-16T01:16:00.018Z,99.1099
2023-04-16T01:17:00.635Z,99.1158
2023-04-16T01:18:01.249Z,99.0906
2023-04-16T01:19:01.836Z,99.0745
2023-04-16T01:20:02.422Z,99.0460
2023-04-16T01:21:03.041Z,99.0601
2023-04-16T01:22:03.573Z,99.0492
2023-04-16T01:23:04.161Z,99.0356
2023-04-16T01:24:04.705Z,99.0421
2023-04-16T01:25:05.288Z,99.0567
2023-04-16T01:26:05.845Z,99.0688
2023-04-16T01:27:06.420Z,99.0771
2023-04-16T01:28:06.973Z,99.0549
2023-04-16T01:29:07.832Z,99.0591
2023-04-16T01:30:08.574Z,99.0719
2023-04-16T01:31:09.132Z,99.0643
2023-04-16T01:32:09.699Z,99.0211
2023-04-16T01:33:10.275Z,98.9983
2023-04-16T01:34:10.822Z,98.9722
2023-04-16T01:35:11.335Z,98.9510
2023-04-16T01:36:11.939Z,98.9100
2023-04-16T01:37:12.489Z,98.8664
2023-04-16T01:38:13.096Z,98.8369
2023-04-16T01:39:13.668Z,98.8535
2023-04-16T01:40:14.222Z,98.8292
2023-04-16T01:41:14.714Z,98.7893
2023-04-16T01:42:15.258Z,98.8257
2023-04-16T01:43:15.881Z,98.8660
2023-04-16T01:44:16.432Z,98.8919
2023-04-16T01:45:16.973Z,98.9041
2023-04-16T01:46:17.520Z,98.9123
2023-04-16T01:47:18.076Z,98.9096
2023-04-16T01:48:18.645Z,98.9280
2023-04-16T01:49:19.197Z,98.9678
2023-04-16T01:50:19.747Z,99.0074
2023-04-16T01:51:20.353Z,99.0447
2023-04-16T01:52:20.901Z,99.0864
2023-04-16T01:53:21.518Z,99.0902
2023-04-16T01:54:22.087Z,99.0740
2023-04-16T01:55:22.629Z,99.0965
2023-04-16T01:56:23.220Z,99.1307
2023-04-16T01:57:23.768Z,99.1521
2023-04-16T01:58:24.427Z,99.1706
2023-04-16T01:59:25.014Z,99.1811
2023-04-16T02:00:25.582Z,99.2035
2023-04-16T02:01:26.176Z,99.2217
2023-04-16T02:02:26.962Z,99.2332
2023-04-16T02:03:27.739Z,99.2505
2023-04-16T02:04:28.398Z,99.2561
2023-04-16T02:05:28.955Z,99.2821
2023-04-16T02:06:29.607Z,99.3210
2023-04-16T02:07:30.186Z,99.3437
2023-04-16T02:08:30.872Z,99.3560
2023-04-16T02:09:31.477Z,99.3523
2023-04-16T02:10:32.086Z,99.3335
2023-04-16T02:11:32.716Z,99.3212
2023-04-16T02:12:33.332Z,99.3135
2023-04-16T02:13:33.981Z,99.2973
2023-04-16T02:14:34.561Z,99.3131
2023-04-16T02:15:35.149Z,99.3194
2023-04-16T02:16:35.974Z,99.3362
2023-04-16T02:17:36.648Z,99.3253
2023-04-16T02:18:37.262Z,99.3157
2023-04-16T02:19:37.883Z,99.3042
2023-04-16T02:20:38.542Z,99.3079
2023-04-16T02:21:39.228Z,99.3116
2023-04-16T02:22:39.791Z,99.3162
2023-04-16T02:23:40.497Z,99.3176
2023-04-16T02:24:41.214Z,99.3117
2023-04-16T02:25:41.834Z,99.3129
2023-04-16T02:26:42.444Z,99.3165
2023-04-16T02:27:43.177Z,99.2947
2023-04-16T02:28:43.853Z,99.3176
2023-04-16T02:29:44.485Z,99.3380
2023-04-16T02:30:45.120Z,99.3267
2023-04-16T02:31:45.811Z,99.3378
2023-04-16T02:32:46.550Z,99.3472
2023-04-16T02:33:47.096Z,99.3744
2023-04-16T02:34:47.874Z,99.3829
2023-04-16T02:35:48.443Z,99.3904
2023-04-16T02:36:49.153Z,99.4081
2023-04-16T02:37:49.753Z,99.4318
2023-04-16T02:38:50.427Z,99.4602
2023-04-16T02:39:51.138Z,99.4799
2023-04-16T02:40:51.766Z,99.4917
2023-04-16T02:41:52.374Z,99.4978
2023-04-16T02:42:52.939Z,99.4986
2023-04-16T02:43:53.509Z,99.5035
2023-04-16T02:44:54.220Z,99.5017
2023-04-16T02:45:55.344Z,99.5095
2023-04-16T02:46:55.969Z,99.5351
2023-04-16T02:47:56.626Z,99.5556
2023-04-16T02:48:57.337Z,99.5542
2023-04-16T02:49:57.953Z,99.5716
2023-04-16T02:50:58.672Z,99.5811
2023-04-16T02:51:59.320Z,99.5891
2023-04-16T02:52:59.936Z,99.5922
2023-04-16T02:54:00.596Z,99.5890
2023-04-16T02:55:01.205Z,99.5912
2023-04-16T02:56:01.886Z,99.5528
2023-04-16T02:57:02.573Z,99.5311
2023-04-16T02:58:03.178Z,99.5091
2023-04-16T02:59:03.842Z,99.5120
2023-04-16T03:00:04.470Z,99.5085
2023-04-16T03:01:05.161Z,99.5145
2023-04-16T03:02:05.798Z,99.5288
2023-04-16T03:03:06.398Z,99.5107
2023-04-16T03:04:07.073Z,99.4926
2023-04-16T03:05:07.712Z,99.4933
2023-04-16T03:06:08.399Z,99.5121
2023-04-16T03:07:09.005Z,99.5166
2023-04-16T03:08:09.604Z,99.5540
2023-04-16T03:09:10.923Z,99.5802
2023-04-16T03:10:11.898Z,99.5654
2023-04-16T03:11:12.523Z,99.5753
2023-04-16T03:12:13.134Z,99.5842
2023-04-16T03:13:13.755Z,99.5950
2023-04-16T03:14:14.367Z,99.6055
2023-04-16T03:15:15.009Z,99.6153
2023-04-16T03:16:15.794Z,99.6084
2023-04-16T03:17:16.570Z,99.6362
2023-04-16T03:18:17.193Z,99.6496
2023-04-16T03:19:17.832Z,99.6782
2023-04-16T03:20:18.464Z,99.6899
2023-04-16T03:21:19.046Z,99.6796
2023-04-16T03:22:20.157Z,99.6796
2023-04-16T03:23:21.022Z,99.6563
2023-04-16T03:24:21.625Z,99.6762
2023-04-16T03:25:22.292Z,99.6849
2023-04-16T03:26:22.874Z,99.7026
2023-04-16T03:27:23.549Z,99.7188
2023-04-16T03:28:24.162Z,99.7188
2023-04-16T03:29:24.777Z,99.7195
2023-04-16T03:30:25.411Z,99.7228
2023-04-16T03:31:26.089Z,99.7234
2023-04-16T03:32:26.772Z,99.7097
2023-04-16T03:33:27.418Z,99.6790
2023-04-16T03:34:28.121Z,99.6651
2023-04-16T03:35:28.758Z,99.6482
2023-04-16T03:36:29.402Z,99.6611
2023-04-16T03:37:29.998Z,99.6954
2023-04-16T03:38:30.584Z,99.7054
2023-04-16T03:39:31.217Z,99.6710
2023-04-16T03:40:31.840Z,99.6696
2023-04-16T03:41:32.487Z,99.6352
2023-04-16T03:42:33.070Z,99.6045
2023-04-16T03:43:33.682Z,99.5778
2023-04-16T03:44:34.267Z,99.5458
2023-04-16T03:45:34.864Z,99.5101
2023-04-16T03:46:35.481Z,99.4920
2023-04-16T03:47:36.147Z,99.4732
2023-04-16T03:48:36.774Z,99.4568
2023-04-16T03:49:37.488Z,99.4559
2023-04-16T03:50:38.116Z,99.4289
2023-04-16T03:51:38.696Z,99.4119
2023-04-16T03:52:39.323Z,99.4126
2023-04-16T03:53:39.959Z,99.4348
2023-04-16T03:54:40.626Z,99.4579
2023-04-16T03:55:41.251Z,99.4837
2023-04-16T03:56:41.852Z,99.5147
2023-04-16T03:57:42.481Z,99.5494
2023-04-16T03:58:43.118Z,99.5838
2023-04-16T03:59:43.780Z,99.6123
2023-04-16T04:00:44.431Z,99.6482
2023-04-16T04:01:45.058Z,99.6766
2023-04-16T04:02:45.812Z,99.7139
2023-04-16T04:03:46.740Z,99.7364
2023-04-16T04:04:47.838Z,99.7559
2023-04-16T04:05:48.528Z,99.7548
2023-04-16T04:06:49.168Z,99.7485
2023-04-16T04:07:49.747Z,99.7306
2023-04-16T04:08:50.366Z,99.7170
2023-04-16T04:09:51.045Z,99.7063
2023-04-16T04:10:51.644Z,99.7206
2023-04-16T04:11:52.331Z,99.7363
2023-04-16T04:12:52.942Z,99.7482
2023-04-16T04:13:53.587Z,99.7365
2023-04-16T04:14:54.268Z,99.7310
2023-04-16T04:15:54.907Z,99.7379
2023-04-16T04:16:55.567Z,99.7373
2023-04-16T04:17:56.249Z,99.7519
2023-04-16T04:18:56.893Z,99.7590
2023-04-16T04:20:01.251Z,99.7822
2023-04-16T04:21:00.153Z,99.8226
2023-04-16T04:22:00.785Z,99.8402
2023-04-16T04:23:01.368Z,99.8580
2023-04-16T04:24:02.051Z,99.8706
2023-04-16T04:25:02.886Z,99.8804
2023-04-16T04:26:03.527Z,99.8819
2023-04-16T04:27:04.184Z,99.8889
2023-04-16T04:28:04.898Z,99.8942
2023-04-16T04:29:05.567Z,99.8928
2023-04-16T04:30:06.218Z,99.9135
2023-04-16T04:31:06.845Z,99.9327
2023-04-16T04:32:07.596Z,99.9386
2023-04-16T04:33:08.546Z,99.9458
2023-04-16T04:34:09.185Z,99.9609
2023-04-16T04:35:09.856Z,99.9598
2023-04-16T04:36:10.519Z,99.9759
2023-04-16T04:37:11.185Z,99.9872
2023-04-16T04:38:13.180Z,99.9862
2023-04-16T04:39:12.859Z,99.9910
2023-04-16T04:40:13.556Z,99.9953
2023-04-16T04:41:14.244Z,99.9958
2023-04-16T04:42:14.839Z,99.9857
2023-04-16T04:43:15.493Z,99.9733
2023-04-16T04:44:16.172Z,99.9697
2023-04-16T04:45:16.857Z,99.9506
2023-04-16T04:46:17.524Z,99.9489
2023-04-16T04:47:18.175Z,99.9444
2023-04-16T04:48:18.893Z,99.9329
2023-04-16T04:49:19.498Z,99.9373
2023-04-16T04:50:20.190Z,99.9455
2023-04-16T04:51:20.880Z,99.9547
2023-04-16T04:52:21.473Z,99.9471
2023-04-16T04:53:22.101Z,99.9540
2023-04-16T04:54:22.678Z,99.9595
2023-04-16T04:55:23.453Z,99.9650
2023-04-16T04:56:24.105Z,99.9718
2023-04-16T04:57:24.837Z,99.9841
2023-04-16T04:58:25.413Z,99.9713
2023-04-16T04:59:26.088Z,99.9628
2023-04-16T05:00:26.744Z,99.9743
2023-04-16T05:01:27.479Z,99.9772
2023-04-16T05:02:28.175Z,99.9705
2023-04-16T05:03:28.889Z,99.9887
2023-04-16T05:04:29.546Z,99.9921
2023-04-16T05:05:30.180Z,99.9906
2023-04-16T05:06:30.946Z,99.9927
2023-04-16T05:07:31.558Z,99.9960
2023-04-16T05:08:32.186Z,99.9956
2023-04-16T05:09:32.824Z,99.9992
2023-04-16T05:10:33.420Z,100.0000
2023-04-16T05:11:34.079Z,100.0000
2023-04-16T05:12:34.671Z,100.0000
2023-04-16T05:13:35.315Z,100.0000
2023-04-16T05:14:35.964Z,100.0000
2023-04-16T05:15:36.567Z,100.0000
2023-04-16T05:16:37.344Z,100.0000
2023-04-16T05:17:37.958Z,100.0000
2023-04-16T05:18:38.596Z,100.0000
2023-04-16T05:19:39.197Z,100.0000
2023-04-16T05:20:39.836Z,100.0000
2023-04-16T05:21:40.519Z,100.0000
2023-04-16T05:22:41.169Z,100.0000
2023-04-16T05:23:41.817Z,100.0000
2023-04-16T05:24:42.472Z,100.0000
2023-04-16T05:25:43.129Z,100.0000
2023-04-16T05:26:43.833Z,100.0000
2023-04-16T05:27:44.460Z,100.0000
2023-04-16T05:28:45.064Z,100.0000
2023-04-16T05:29:45.787Z,100.0000
2023-04-16T05:30:46.410Z,100.0000
2023-04-16T05:31:47.172Z,100.0000
2023-04-16T05:32:47.824Z,100.0000
2023-04-16T05:33:48.394Z,100.0000
2023-04-16T05:34:49.073Z,100.0000
2023-04-16T05:35:49.719Z,100.0000
2023-04-16T05:36:50.439Z,100.0000
2023-04-16T05:37:51.041Z,100.0000
2023-04-16T05:38:51.743Z,100.0000
2023-04-16T05:39:52.580Z,100.0000
2023-04-16T05:40:53.238Z,100.0000
2023-04-16T05:41:53.852Z,100.0000
2023-04-16T05:42:54.639Z,100.0000
2023-04-16T05:43:55.332Z,100.0000
2023-04-16T05:44:56.038Z,100.0000
2023-04-16T05:45:56.837Z,100.0000
2023-04-16T05:46:57.538Z,100.0000
2023-04-16T05:47:58.180Z,100.0000
2023-04-16T05:48:58.832Z,100.0000
2023-04-16T05:49:59.411Z,100.0000
2023-04-16T05:51:00.053Z,100.0000
2023-04-16T05:52:00.658Z,100.0000
2023-04-16T05:53:01.345Z,100.0000
2023-04-16T05:54:02.042Z,100.0000
2023-04-16T05:55:02.646Z,100.0000
2023-04-16T05:56:03.328Z,100.0000
2023-04-16T05:57:03.949Z,100.0000
2023-04-16T05:58:04.538Z,100.0000
2023-04-16T05:59:05.237Z,100.0000
2023-04-16T06:00:05.870Z,100.0000
2023-04-16T06:01:06.477Z,100.0000
2023-04-16T06:02:07.198Z,100.0000
2023-04-16T06:03:08.030Z,100.0000
2023-04-16T06:04:08.996Z,100.0000
2023-04-16T06:05:09.702Z,100.0000
2023-04-16T06:06:10.296Z,100.0000
2023-04-16T06:07:10.933Z,100.0000
2023-04-16T06:08:11.607Z,100.0000
2023-04-16T06:09:12.317Z,100.0000
2023-04-16T06:10:12.970Z,100.0000
2023-04-16T06:11:13.587Z,100.0000
2023-04-16T06:12:14.270Z,100.0000
2023-04-16T06:13:14.851Z,100.0000
2023-04-16T06:14:15.500Z,100.0000
2023-04-16T06:15:16.194Z,100.0000
2023-04-16T06:16:16.883Z,100.0000
2023-04-16T06:17:17.618Z,100.0000
2023-04-16T06:18:18.250Z,100.0000
2023-04-16T06:19:18.986Z,100.0000
2023-04-16T06:20:19.621Z,100.0000
2023-04-16T06:21:20.232Z,100.0000
2023-04-16T06:22:20.918Z,100.0000
2023-04-16T06:23:21.564Z,100.0000
2023-04-16T06:24:22.172Z,100.0000
2023-04-16T06:25:22.863Z,100.0000
2023-04-16T06:26:23.482Z,100.0000
2023-04-16T06:27:24.203Z,100.0000
2023-04-16T06:28:24.847Z,100.0000
2023-04-16T06:29:33.717Z,100.0000
2023-04-16T06:30:26.891Z,99.9870
2023-04-16T06:31:27.596Z,99.9315
2023-04-16T06:32:28.479Z,99.8846
2023-04-16T06:33:29.234Z,99.8379
2023-04-16T06:34:29.887Z,99.8065
2023-04-16T06:35:30.518Z,99.7902
2023-04-16T06:36:31.213Z,99.7681
2023-04-16T06:37:31.863Z,99.7291
2023-04-16T06:38:32.493Z,99.6904
2023-04-16T06:39:33.432Z,99.6371
2023-04-16T06:40:34.088Z,99.6413
2023-04-16T06:41:34.750Z,99.6236
2023-04-16T06:42:35.418Z,99.6551
2023-04-16T06:43:36.053Z,99.6470
2023-04-16T06:44:36.644Z,99.6203
2023-04-16T06:45:37.270Z,99.6271
2023-04-16T06:46:37.994Z,99.6252
2023-04-16T06:47:38.759Z,99.6718
2023-04-16T06:48:39.384Z,99.7048
2023-04-16T06:49:39.977Z,99.7448
2023-04-16T06:50:40.600Z,99.7803
2023-04-16T06:51:41.207Z,99.8116
2023-04-16T06:52:41.952Z,99.8332
2023-04-16T06:53:42.584Z,99.8359
2023-04-16T06:54:43.345Z,99.8481
2023-04-16T06:55:43.993Z,99.8769
2023-04-16T06:56:44.750Z,99.8935
2023-04-16T06:57:45.475Z,99.9207
2023-04-16T06:58:46.162Z,99.9250
2023-04-16T06:59:46.834Z,99.9636
2023-04-16T07:00:47.693Z,99.9843
2023-04-16T07:01:48.534Z,99.9976
2023-04-16T07:02:49.391Z,99.9995
2023-04-16T07:03:50.322Z,100.0000
2023-04-16T07:04:51.513Z,99.9992
2023-04-16T07:05:52.174Z,100.0000
2023-04-16T07:06:52.899Z,100.0000
2023-04-16T07:07:53.635Z,100.0000
2023-04-16T07:08:54.384Z,100.0000
2023-04-16T07:09:55.087Z,100.0000
2023-04-16T07:10:55.823Z,100.0000
2023-04-16T07:11:56.609Z,100.0000
2023-04-16T07:12:57.399Z,100.0000
2023-04-16T07:13:58.088Z,100.0000
2023-04-16T07:14:58.761Z,100.0000
2023-04-16T07:15:59.461Z,100.0000
2023-04-16T07:17:00.129Z,100.0000
2023-04-16T07:18:00.855Z,100.0000
2023-04-16T07:19:01.576Z,100.0000
2023-04-16T07:20:02.210Z,100.0000
2023-04-16T07:21:02.897Z,100.0000
2023-04-16T07:22:03.835Z,100.0000
2023-04-16T07:23:04.539Z,100.0000
2023-04-16T07:24:05.256Z,100.0000
2023-04-16T07:25:05.865Z,100.0000
2023-04-16T07:26:06.473Z,100.0000
2023-04-16T07:27:07.135Z,100.0000
2023-04-16T07:28:07.827Z,100.0000
2023-04-16T07:29:08.800Z,100.0000
2023-04-16T07:30:09.791Z,100.0000
2023-04-16T07:31:10.452Z,100.0000
2023-04-16T07:32:12.445Z,100.0000
2023-04-16T07:33:12.153Z,100.0000
2023-04-16T07:34:12.933Z,100.0000
2023-04-16T07:35:13.593Z,100.0000
2023-04-16T07:36:14.259Z,100.0000
2023-04-16T07:37:14.927Z,100.0000
2023-04-16T07:38:15.714Z,100.0000
2023-04-16T07:39:16.438Z,100.0000
2023-04-16T07:40:17.175Z,100.0000
2023-04-16T07:41:17.872Z,100.0000
2023-04-16T07:42:18.550Z,100.0000
2023-04-16T07:43:19.357Z,100.0000
2023-04-16T07:44:20.088Z,100.0000
2023-04-16T07:45:20.774Z,100.0000
2023-04-16T07:46:21.853Z,100.0000
2023-04-16T07:47:22.885Z,100.0000
2023-04-16T07:48:23.674Z,100.0000
2023-04-16T07:49:24.390Z,100.0000
2023-04-16T07:50:25.083Z,100.0000
2023-04-16T07:51:25.799Z,100.0000
2023-04-16T07:52:26.418Z,100.0000
2023-04-16T07:53:27.184Z,100.0000
2023-04-16T07:54:29.084Z,100.0000
2023-04-16T07:55:30.063Z,100.0000
2023-04-16T07:56:30.797Z,100.0000
2023-04-16T07:57:31.492Z,99.9997
2023-04-16T07:58:32.283Z,100.0000
2023-04-16T07:59:32.996Z,100.0000
2023-04-16T08:00:33.707Z,100.0000
2023-04-16T08:01:34.403Z,100.0000
2023-04-16T08:02:35.118Z,100.0000
2023-04-16T08:03:36.348Z,100.0000
2023-04-16T08:04:37.256Z,100.0000
2023-04-16T08:05:38.280Z,100.0000
2023-04-16T08:06:39.039Z,100.0000
2023-04-16T08:07:39.696Z,100.0000
2023-04-16T08:08:40.349Z,100.0000
2023-04-16T08:09:41.115Z,100.0000
2023-04-16T08:10:41.719Z,100.0000
2023-04-16T08:11:42.366Z,100.0000
2023-04-16T08:12:42.994Z,100.0000
2023-04-16T08:13:43.650Z,100.0000
2023-04-16T08:14:44.323Z,100.0000
2023-04-16T08:15:45.136Z,100.0000
2023-04-16T08:16:45.944Z,100.0000
2023-04-16T08:17:46.636Z,100.0000
2023-04-16T08:18:47.369Z,100.0000
2023-04-16T08:19:48.095Z,100.0000
2023-04-16T08:20:48.758Z,100.0000
2023-04-16T08:21:49.630Z,100.0000
2023-04-16T08:22:50.439Z,100.0000
2023-04-16T08:23:51.085Z,100.0000
2023-04-16T08:24:51.763Z,100.0000
2023-04-16T08:25:53.112Z,100.0000
2023-04-16T08:26:53.857Z,100.0000
2023-04-16T08:27:54.600Z,100.0000
2023-04-16T08:28:55.232Z,100.0000
2023-04-16T08:29:55.927Z,100.0000
2023-04-16T08:30:56.624Z,100.0000
2023-04-16T08:31:57.304Z,100.0000
2023-04-16T08:32:58.001Z,100.0000
2023-04-16T08:33:58.722Z,100.0000
2023-04-16T08:34:59.442Z,100.0000
2023-04-16T08:36:00.116Z,100.0000
2023-04-16T08:37:00.761Z,100.0000
2023-04-16T08:38:02.598Z,100.0000
2023-04-16T08:39:03.443Z,100.0000
2023-04-16T08:40:04.161Z,99.9986
2023-04-16T08:41:04.802Z,99.9968
2023-04-16T08:42:05.439Z,99.9981
2023-04-16T08:43:06.055Z,99.9814
2023-04-16T08:44:06.838Z,99.9484
2023-04-16T08:45:07.444Z,99.9463
2023-04-16T08:46:08.160Z,99.9417
2023-04-16T08:47:08.882Z,99.9614
2023-04-16T08:48:09.807Z,99.9603
2023-04-16T08:49:10.700Z,99.9135
2023-04-16T08:50:11.681Z,99.8282
2023-04-16T08:51:12.336Z,99.8218
2023-04-16T08:52:13.047Z,99.7939
2023-04-16T08:53:13.699Z,99.7631
2023-04-16T08:54:14.378Z,99.7040
2023-04-16T08:55:15.090Z,99.7145
2023-04-16T08:56:15.813Z,99.6654
2023-04-16T08:57:16.484Z,99.6931
2023-04-16T08:58:17.145Z,99.6579
2023-04-16T08:59:17.798Z,99.5840
2023-04-16T09:00:18.497Z,99.5702
2023-04-16T09:01:19.347Z,99.5556
2023-04-16T09:02:20.131Z,99.5517
2023-04-16T09:03:21.197Z,99.5573
2023-04-16T09:04:22.018Z,99.5486
2023-04-16T09:05:22.789Z,99.5487
2023-04-16T09:06:23.443Z,99.5714
2023-04-16T09:07:24.266Z,99.5678
2023-04-16T09:08:24.967Z,99.5038
2023-04-16T09:09:25.654Z,99.4927
2023-04-16T09:10:26.576Z,99.4843
2023-04-16T09:11:27.194Z,99.4796
2023-04-16T09:12:27.877Z,99.4677
2023-04-16T09:13:28.515Z,99.4510
2023-04-16T09:14:29.317Z,99.4417
2023-04-16T09:15:29.970Z,99.4204
2023-04-16T09:16:30.784Z,99.4539
2023-04-16T09:17:31.450Z,99.4569
2023-04-16T09:18:32.063Z,99.4547
2023-04-16T09:19:32.728Z,99.4903
2023-04-16T09:20:33.351Z,99.4929
2023-04-16T09:21:33.987Z,99.4964
2023-04-16T09:22:34.641Z,99.5040
2023-04-16T09:23:35.330Z,99.5445
2023-04-16T09:24:35.941Z,99.5675
2023-04-16T09:25:36.926Z,99.5676
2023-04-16T09:26:37.562Z,99.6047
2023-04-16T09:27:38.256Z,99.5960
2023-04-16T09:28:38.904Z,99.5467
2023-04-16T09:29:39.600Z,99.4814
2023-04-16T09:30:40.313Z,99.4348
2023-04-16T09:31:40.994Z,99.4357
2023-04-16T09:32:41.798Z,99.4501
2023-04-16T09:33:42.450Z,99.4366
2023-04-16T09:34:43.236Z,99.4324
2023-04-16T09:35:43.956Z,99.4705
2023-04-16T09:36:44.628Z,99.4952
2023-04-16T09:37:45.284Z,99.4845
2023-04-16T09:38:45.986Z,99.4419
2023-04-16T09:39:46.646Z,99.2873
2023-04-16T09:40:47.401Z,99.2877
2023-04-16T09:41:48.224Z,99.2789
2023-04-16T09:42:49.222Z,99.3173
2023-04-16T09:43:49.823Z,99.3550
2023-04-16T09:44:50.454Z,99.3741
2023-04-16T09:45:51.260Z,99.3944
2023-04-16T09:46:51.965Z,99.3795
2023-04-16T09:47:52.739Z,99.3978
2023-04-16T09:48:53.414Z,99.3829
2023-04-16T09:49:54.923Z,99.3685
2023-04-16T09:50:55.580Z,99.3810
2023-04-16T09:51:56.275Z,99.3965
2023-04-16T09:52:56.926Z,99.3989
2023-04-16T09:53:57.614Z,99.4062
2023-04-16T09:54:58.278Z,99.4138
2023-04-16T09:55:59.062Z,99.4101
2023-04-16T09:56:59.795Z,99.4150
2023-04-16T09:58:00.503Z,99.4026
2023-04-16T09:59:01.177Z,99.3756
2023-04-16T10:00:01.816Z,99.3904
2023-04-16T10:01:02.592Z,99.4010
2023-04-16T10:02:14.600Z,99.3845
2023-04-16T10:03:04.794Z,99.4020
2023-04-16T10:04:05.655Z,99.4091
2023-04-16T10:05:06.499Z,99.4052
2023-04-16T10:06:07.171Z,99.3917
2023-04-16T10:07:07.858Z,99.3841
2023-04-16T10:08:08.546Z,99.4430
2023-04-16T10:09:09.452Z,99.4351
2023-04-16T10:10:10.510Z,99.4595
2023-04-16T10:11:11.206Z,99.4369
2023-04-16T10:12:12.063Z,99.4225
2023-04-16T10:13:12.863Z,99.4585
2023-04-16T10:14:13.617Z,99.5154
2023-04-16T10:15:14.387Z,99.5228
2023-04-16T10:16:15.181Z,99.4884
2023-04-16T10:17:15.846Z,99.4985
2023-04-16T10:18:16.521Z,99.5154
2023-04-16T10:19:17.121Z,99.4695
2023-04-16T10:20:17.792Z,99.3873
2023-04-16T10:21:18.538Z,99.3728
2023-04-16T10:22:19.168Z,99.3171
2023-04-16T10:23:19.743Z,99.3391
2023-04-16T10:24:20.359Z,99.3171
2023-04-16T10:25:21.016Z,99.3230
2023-04-16T10:26:21.677Z,99.3391
2023-04-16T10:27:22.326Z,99.3560
2023-04-16T10:28:23.114Z,99.3714
2023-04-16T10:29:23.797Z,99.3594
2023-04-16T10:30:24.519Z,99.3533
2023-04-16T10:31:25.233Z,99.3190
2023-04-16T10:32:26.180Z,99.2558
2023-04-16T10:33:26.894Z,99.2049
2023-04-16T10:34:27.545Z,99.2595
2023-04-16T10:35:28.225Z,99.2615
2023-04-16T10:36:28.999Z,99.2394
2023-04-16T10:37:29.625Z,99.2133
2023-04-16T10:38:30.339Z,99.1530
2023-04-16T10:39:30.992Z,99.1049
2023-04-16T10:40:31.640Z,99.0738
2023-04-16T10:41:32.363Z,99.1208
2023-04-16T10:42:33.063Z,99.1224
2023-04-16T10:43:33.753Z,99.0569
2023-04-16T10:44:34.370Z,98.9927
2023-04-16T10:45:35.233Z,98.9957
2023-04-16T10:46:35.992Z,98.9474
2023-04-16T10:47:36.664Z,98.9189
2023-04-16T10:48:48.660Z,98.8655
2023-04-16T10:49:38.712Z,98.7642
2023-04-16T10:50:39.587Z,98.7689
2023-04-16T10:51:40.370Z,98.6660
2023-04-16T10:52:41.074Z,98.7151
2023-04-16T10:53:41.732Z,98.8045
2023-04-16T10:54:42.398Z,98.7334
2023-04-16T10:55:42.998Z,98.7393
2023-04-16T10:56:43.689Z,98.7480
2023-04-16T10:57:44.378Z,98.6952
2023-04-16T10:58:45.019Z,98.7702
2023-04-16T10:59:45.663Z,98.8548
2023-04-16T11:00:46.340Z,98.9209
2023-04-16T11:01:47.041Z,98.9445
2023-04-16T11:02:47.833Z,98.9081
2023-04-16T11:03:48.617Z,98.8462
2023-04-16T11:04:50.007Z,98.7523
2023-04-16T11:05:50.842Z,98.7859
2023-04-16T11:06:51.532Z,98.7471
2023-04-16T11:07:52.506Z,98.6229
2023-04-16T11:08:54.915Z,98.4361
2023-04-16T11:09:53.814Z,98.4821
2023-04-16T11:10:54.487Z,98.6845
2023-04-16T11:11:55.181Z,98.7263
2023-04-16T11:12:55.857Z,98.7218
2023-04-16T11:13:56.530Z,98.6810
2023-04-16T11:14:57.198Z,98.7281
2023-04-16T11:15:57.861Z,98.8651
2023-04-16T11:16:58.499Z,98.8738
2023-04-16T11:17:59.176Z,98.6699
2023-04-16T11:18:59.810Z,98.5540
2023-04-16T11:20:00.545Z,98.5501
2023-04-16T11:21:01.275Z,98.4299
2023-04-16T11:22:01.898Z,98.4380
2023-04-16T11:23:02.579Z,98.4478
2023-04-16T11:24:03.133Z,98.1579
2023-04-16T11:25:03.778Z,97.9677
2023-04-16T11:26:04.426Z,97.9014
2023-04-16T11:27:05.176Z,97.9305
2023-04-16T11:28:05.828Z,98.0965
2023-04-16T11:29:06.516Z,98.1442
2023-04-16T11:30:07.174Z,98.0740
2023-04-16T11:31:07.861Z,98.1494
2023-04-16T11:32:08.545Z,98.2821
2023-04-16T11:33:09.245Z,98.2761
2023-04-16T11:34:09.900Z,98.2710
2023-04-16T11:35:10.547Z,98.4168
2023-04-16T11:36:11.139Z,98.5915
2023-04-16T11:37:11.885Z,98.7246
2023-04-16T11:38:12.555Z,98.8442
2023-04-16T11:39:13.229Z,98.8222
2023-04-16T11:40:14.020Z,98.6942
2023-04-16T11:41:14.680Z,98.5697
2023-04-16T11:42:15.436Z,98.5313
2023-04-16T11:43:16.179Z,98.5442
2023-04-16T11:44:16.829Z,98.6437
2023-04-16T11:45:17.902Z,98.7071
2023-04-16T11:46:27.398Z,98.7345
2023-04-16T11:47:20.271Z,98.8014
2023-04-16T11:48:21.031Z,98.9037
2023-04-16T11:49:21.740Z,98.9627
2023-04-16T11:50:22.757Z,99.0344
2023-04-16T11:51:23.810Z,99.1015
2023-04-16T11:52:24.991Z,99.0521
2023-04-16T11:53:25.752Z,98.9962
2023-04-16T11:54:26.455Z,99.0328
2023-04-16T11:55:27.178Z,99.0062
2023-04-16T11:56:27.850Z,98.9879
2023-04-16T11:57:28.549Z,99.0224
2023-04-16T11:58:29.263Z,98.9805
2023-04-16T11:59:29.970Z,99.0431
2023-04-16T12:00:30.665Z,99.0717
2023-04-16T12:01:31.408Z,99.1227
2023-04-16T12:02:32.313Z,99.1920
2023-04-16T12:03:33.348Z,99.2368
2023-04-16T12:04:34.204Z,99.2236
2023-04-16T12:05:34.954Z,99.2165
2023-04-16T12:06:35.695Z,99.1061
2023-04-16T12:07:36.494Z,99.0172
2023-04-16T12:08:37.272Z,98.9168